Time;durP1;ratioP1;P1;durP2;ratioP2;P2;SDS_P1;SDS_P2;PMS_P1;PMS_P2;Temp;Humidity;BMP_temperature;BMP_pressure;BME280_temperature;BME280_humidity;BME280_pressure;Samples;Min_cycle;Max_cycle;Signal;HPM_P1;HPM_P2
2022/01/13 00:01:59;;;;;;;10.70;7.23;;;;;;;;;;4529819;28;20044;-62
2022/01/13 00:04:12;;;;;;;10.50;7.28;;;;;;;;;;4528715;28;20040;-62
2022/01/13 00:06:22;;;;;;;10.82;7.50;;;;;;;;;;4530165;28;20029;-62
2022/01/13 00:08:33;;;;;;;10.43;7.57;;;;;;;;;;4528850;28;20029;-63
2022/01/13 00:10:43;;;;;;;11.30;7.67;;;;;;;;;;4527849;28;20449;-62
2022/01/13 00:13:24;;;;;;;11.27;7.17;;;;;;;;;;4528541;28;20029;-62
2022/01/13 00:15:48;;;;;;;10.95;7.15;;;;;;;;;;4529861;28;20053;-62
2022/01/13 00:18:02;;;;;;;10.88;7.60;;;;;;;;;;4528274;28;20045;-62
2022/01/13 00:24:45;;;;;;;10.50;7.03;;;;;;;;;;4527750;28;20022;-63
2022/01/13 00:26:55;;;;;;;10.65;7.38;;;;;;;;;;4526934;28;20079;-62
2022/01/13 00:29:07;;;;;;;11.43;7.57;;;;;;;;;;4529548;28;20124;-62
2022/01/13 00:31:26;;;;;;;12.98;8.10;;;;;;;;;;4526617;28;20064;-62
2022/01/13 00:33:38;;;;;;;11.98;8.07;;;;;;;;;;4529767;28;20029;-62
2022/01/13 00:35:48;;;;;;;10.50;7.13;;;;;;;;;;4528720;28;20048;-62
2022/01/13 00:37:59;;;;;;;10.57;7.37;;;;;;;;;;4526953;28;24118;-62
2022/01/13 00:40:10;;;;;;;10.37;7.33;;;;;;;;;;4528252;28;20136;-62
2022/01/13 00:42:23;;;;;;;10.90;7.25;;;;;;;;;;4529045;28;20029;-62
2022/01/13 00:44:37;;;;;;;8.93;6.50;;;;;;;;;;4528008;28;20567;-62
2022/01/13 00:46:55;;;;;;;10.15;7.18;;;;;;;;;;4526404;28;20037;-62
2022/01/13 00:49:05;;;;;;;10.93;7.63;;;;;;;;;;4527415;28;20021;-62
2022/01/13 00:51:16;;;;;;;12.20;7.67;;;;;;;;;;4528326;28;20029;-63
2022/01/13 00:53:26;;;;;;;9.93;6.93;;;;;;;;;;4529658;28;20103;-62
2022/01/13 00:57:56;;;;;;;11.35;7.28;;;;;;;;;;4529249;28;20142;-63
2022/01/13 01:00:07;;;;;;;10.13;7.03;;;;;;;;;;4528772;28;20310;-62
2022/01/13 01:02:17;;;;;;;10.70;7.17;;;;;;;;;;4513734;28;20073;-62
2022/01/13 01:04:28;;;;;;;10.80;7.37;;;;;;;;;;4536489;28;20304;-62
2022/01/13 01:06:38;;;;;;;12.97;8.30;;;;;;;;;;4527010;28;20128;-62
2022/01/13 01:08:49;;;;;;;12.70;7.85;;;;;;;;;;4527228;28;20496;-62
2022/01/13 01:11:02;;;;;;;11.27;7.50;;;;;;;;;;4528752;28;20041;-62
2022/01/13 01:13:16;;;;;;;11.50;7.50;;;;;;;;;;4525131;28;20044;-63
2022/01/13 01:15:29;;;;;;;10.45;7.15;;;;;;;;;;4513536;28;20102;-61
2022/01/13 01:17:46;;;;;;;11.23;7.72;;;;;;;;;;4524920;28;20048;-61
2022/01/13 01:19:56;;;;;;;11.85;8.20;;;;;;;;;;4526858;28;20801;-62
2022/01/13 01:24:43;;;;;;;12.20;8.52;;;;;;;;;;4528439;28;20041;-62
2022/01/13 01:26:59;;;;;;;10.98;7.60;;;;;;;;;;4527901;28;20032;-63
2022/01/13 01:31:28;;;;;;;13.38;8.73;;;;;;;;;;4536545;28;20029;-62
2022/01/13 01:33:44;;;;;;;11.75;8.13;;;;;;;;;;4527850;28;20068;-62
2022/01/13 01:35:56;;;;;;;12.15;8.07;;;;;;;;;;4526029;28;20198;-62
2022/01/13 01:38:07;;;;;;;10.82;7.80;;;;;;;;;;4527135;28;20041;-63
2022/01/13 01:40:17;;;;;;;10.40;7.27;;;;;;;;;;4528747;28;20042;-63
2022/01/13 01:42:28;;;;;;;11.07;7.83;;;;;;;;;;4527050;28;20739;-62
2022/01/13 01:44:43;;;;;;;12.63;7.47;;;;;;;;;;4531126;28;20179;-62
2022/01/13 01:46:54;;;;;;;10.65;7.03;;;;;;;;;;4525069;28;20255;-62
2022/01/13 01:49:15;;;;;;;11.73;7.80;;;;;;;;;;4529409;28;20029;-62
2022/01/13 01:51:26;;;;;;;12.35;7.65;;;;;;;;;;4529922;28;20033;-63
2022/01/13 01:53:36;;;;;;;11.57;7.53;;;;;;;;;;4528330;28;38503;-63
2022/01/13 01:55:47;;;;;;;11.93;7.63;;;;;;;;;;4512902;28;20037;-63
2022/01/13 01:57:57;;;;;;;11.97;7.97;;;;;;;;;;4528638;28;20076;-63
2022/01/13 02:00:11;;;;;;;12.60;8.63;;;;;;;;;;4512637;28;20038;-62
2022/01/13 02:02:25;;;;;;;11.55;7.72;;;;;;;;;;4527635;28;20037;-62
2022/01/13 02:04:36;;;;;;;12.18;8.77;;;;;;;;;;4526808;28;20570;-62
2022/01/13 02:06:47;;;;;;;12.38;8.20;;;;;;;;;;4528596;28;20025;-63
2022/01/13 02:08:57;;;;;;;12.70;8.43;;;;;;;;;;4513123;28;20042;-63
2022/01/13 02:11:08;;;;;;;13.03;8.63;;;;;;;;;;4525829;28;29159;-62
2022/01/13 02:13:22;;;;;;;13.40;9.13;;;;;;;;;;4526289;28;20034;-62
2022/01/13 02:15:35;;;;;;;13.80;9.00;;;;;;;;;;4524107;28;20088;-63
2022/01/13 02:17:46;;;;;;;13.70;8.75;;;;;;;;;;4525175;28;20183;-63
2022/01/13 02:19:57;;;;;;;14.73;9.40;;;;;;;;;;4526337;28;20551;-63
2022/01/13 02:22:07;;;;;;;14.15;9.65;;;;;;;;;;4529180;28;20029;-62
2022/01/13 02:24:18;;;;;;;14.83;9.97;;;;;;;;;;4529119;28;20037;-63
2022/01/13 02:26:29;;;;;;;14.63;9.83;;;;;;;;;;4524651;28;20029;-62
2022/01/13 02:28:39;;;;;;;15.53;10.33;;;;;;;;;;4526716;28;20519;-62
2022/01/13 02:30:50;;;;;;;14.65;9.65;;;;;;;;;;4526284;28;20036;-63
2022/01/13 02:33:00;;;;;;;15.60;10.30;;;;;;;;;;4535314;28;20665;-63
2022/01/13 02:35:11;;;;;;;15.77;10.57;;;;;;;;;;4527115;28;20042;-62
2022/01/13 02:37:21;;;;;;;16.27;9.60;;;;;;;;;;4525419;28;29980;-63
2022/01/13 02:39:32;;;;;;;14.53;9.60;;;;;;;;;;4526411;28;20053;-62
2022/01/13 02:41:44;;;;;;;12.80;8.88;;;;;;;;;;4526322;28;20038;-63
2022/01/13 02:43:57;;;;;;;14.90;9.75;;;;;;;;;;4509857;28;20049;-62
2022/01/13 02:48:48;;;;;;;15.18;9.77;;;;;;;;;;4527177;28;20128;-62
2022/01/13 02:50:59;;;;;;;;;;;;;;;;;;4528263;28;20123;-62
2022/01/13 02:53:10;;;;;;;15.35;9.32;;;;;;;;;;4513099;28;19924;-62
2022/01/13 02:55:23;;;;;;;14.07;9.47;;;;;;;;;;4527511;28;20033;-62
2022/01/13 02:57:33;;;;;;;15.75;10.18;;;;;;;;;;4535935;28;20033;-62
2022/01/13 02:59:44;;;;;;;15.87;10.00;;;;;;;;;;4527629;28;20033;-63
2022/01/13 03:01:54;;;;;;;14.40;10.20;;;;;;;;;;4526603;28;20031;-62
2022/01/13 03:04:07;;;;;;;14.27;9.43;;;;;;;;;;4526684;28;20103;-62
2022/01/13 03:06:24;;;;;;;14.18;10.25;;;;;;;;;;4510641;28;20092;-62
2022/01/13 03:08:36;;;;;;;13.38;9.45;;;;;;;;;;4527263;28;20033;-62
2022/01/13 03:10:46;;;;;;;15.20;10.10;;;;;;;;;;4524654;28;20037;-62
2022/01/13 03:12:58;;;;;;;13.55;9.45;;;;;;;;;;4527151;28;20030;-62
2022/01/13 03:15:09;;;;;;;15.10;9.85;;;;;;;;;;4525747;28;21007;-63
2022/01/13 03:17:19;;;;;;;14.80;10.33;;;;;;;;;;4526285;28;20049;-63
2022/01/13 03:19:29;;;;;;;13.03;8.93;;;;;;;;;;4525147;28;32509;-61
2022/01/13 03:21:40;;;;;;;14.77;9.93;;;;;;;;;;4527656;28;20090;-62
2022/01/13 03:23:51;;;;;;;15.50;10.20;;;;;;;;;;4523631;28;20037;-62
2022/01/13 03:26:02;;;;;;;13.57;9.77;;;;;;;;;;4518448;28;20611;-62
2022/01/13 03:28:28;;;;;;;13.38;9.70;;;;;;;;;;4529704;28;20109;-62
2022/01/13 03:30:38;;;;;;;15.15;10.30;;;;;;;;;;4525909;28;20040;-62
2022/01/13 03:32:49;;;;;;;14.20;10.13;;;;;;;;;;4529044;28;20058;-63
2022/01/13 03:35:00;;;;;;;16.37;10.60;;;;;;;;;;4530022;28;20462;-63
2022/01/13 03:37:10;;;;;;;13.63;10.02;;;;;;;;;;4529215;28;20462;-62
2022/01/13 03:39:20;;;;;;;14.97;10.03;;;;;;;;;;4531156;28;20035;-62
2022/01/13 03:41:32;;;;;;;14.60;9.90;;;;;;;;;;4530615;28;20037;-62
2022/01/13 03:43:42;;;;;;;14.30;9.77;;;;;;;;;;4529189;28;20041;-62
2022/01/13 03:45:53;;;;;;;15.27;10.00;;;;;;;;;;4529001;28;31814;-62
2022/01/13 03:48:06;;;;;;;15.77;10.73;;;;;;;;;;4529975;28;20495;-62
2022/01/13 03:50:16;;;;;;;14.23;9.45;;;;;;;;;;4529792;28;20065;-62
2022/01/13 03:52:30;;;;;;;17.07;10.43;;;;;;;;;;4529977;28;20108;-62
2022/01/13 03:55:18;;;;;;;14.73;10.20;;;;;;;;;;4528548;28;20037;-62
2022/01/13 03:58:05;;;;;;;14.43;9.93;;;;;;;;;;4534133;28;20053;-62
2022/01/13 04:00:43;;;;;;;15.55;10.20;;;;;;;;;;4529253;28;20037;-62
2022/01/13 04:02:53;;;;;;;14.05;10.13;;;;;;;;;;4530526;28;20843;-63
2022/01/13 04:05:03;;;;;;;13.90;10.17;;;;;;;;;;4543949;28;20128;-62
2022/01/13 04:07:20;;;;;;;16.13;10.63;;;;;;;;;;4527990;28;29962;-62
2022/01/13 04:09:33;;;;;;;15.60;10.70;;;;;;;;;;4530279;28;20132;-62
2022/01/13 04:11:43;;;;;;;16.73;10.63;;;;;;;;;;4528207;28;20065;-62
2022/01/13 04:14:01;;;;;;;15.13;10.13;;;;;;;;;;4527966;28;20120;-62
2022/01/13 04:16:12;;;;;;;14.02;9.55;;;;;;;;;;4530806;28;20038;-63
2022/01/13 04:18:23;;;;;;;15.40;10.55;;;;;;;;;;4531501;28;20053;-62
2022/01/13 04:20:33;;;;;;;14.53;10.10;;;;;;;;;;4530454;28;20025;-62
2022/01/13 04:22:45;;;;;;;14.33;10.10;;;;;;;;;;4528492;28;20033;-62
2022/01/13 04:24:55;;;;;;;;;;;;;;;;;;4528250;28;20033;-62
2022/01/13 04:27:08;;;;;;;15.30;10.50;;;;;;;;;;4537323;28;20471;-62
2022/01/13 04:29:30;;;;;;;14.82;10.05;;;;;;;;;;4528643;28;20033;-62
2022/01/13 04:31:44;;;;;;;15.15;10.40;;;;;;;;;;4526132;28;20637;-62
2022/01/13 04:33:54;;;;;;;15.48;10.43;;;;;;;;;;4528572;28;20034;-62
2022/01/13 04:36:06;;;;;;;15.40;10.67;;;;;;;;;;4530224;28;20064;-62
2022/01/13 04:38:17;;;;;;;15.73;9.98;;;;;;;;;;4528857;28;20249;-62
2022/01/13 04:40:27;;;;;;;15.00;10.20;;;;;;;;;;4520285;28;20025;-62
2022/01/13 04:42:41;;;;;;;15.17;10.43;;;;;;;;;;4528088;28;20498;-62
2022/01/13 04:44:52;;;;;;;14.88;10.38;;;;;;;;;;4529055;28;20665;-62
2022/01/13 04:47:07;;;;;;;15.67;10.73;;;;;;;;;;4529740;28;20047;-62
2022/01/13 04:49:19;;;;;;;16.45;10.55;;;;;;;;;;4528310;28;20080;-62
2022/01/13 04:51:29;;;;;;;14.90;9.75;;;;;;;;;;4528775;28;20077;-63
2022/01/13 04:53:40;;;;;;;14.93;9.82;;;;;;;;;;4531216;28;20503;-63
2022/01/13 04:55:53;;;;;;;14.40;9.73;;;;;;;;;;4528262;28;20465;-62
2022/01/13 04:58:07;;;;;;;14.02;9.48;;;;;;;;;;4527375;28;20045;-62
2022/01/13 05:00:17;;;;;;;14.93;10.13;;;;;;;;;;4531001;28;20116;-62
2022/01/13 05:02:27;;;;;;;15.07;10.07;;;;;;;;;;4529685;28;20040;-62
2022/01/13 05:04:39;;;;;;;15.77;10.10;;;;;;;;;;4531220;28;20069;-63
2022/01/13 05:06:49;;;;;;;17.23;10.00;;;;;;;;;;4529694;28;20075;-62
2022/01/13 05:09:00;;;;;;;15.07;9.90;;;;;;;;;;4528339;28;20033;-62
2022/01/13 05:11:10;;;;;;;16.53;10.37;;;;;;;;;;4526298;28;20060;-62
2022/01/13 05:13:21;;;;;;;15.73;10.17;;;;;;;;;;4528084;28;26126;-62
2022/01/13 05:15:32;;;;;;;15.50;10.07;;;;;;;;;;4527758;28;20033;-62
2022/01/13 05:20:16;;;;;;;16.80;10.70;;;;;;;;;;4529292;28;19967;-62
2022/01/13 05:22:27;;;;;;;15.60;10.45;;;;;;;;;;4527822;28;20021;-62
2022/01/13 05:24:37;;;;;;;16.77;10.60;;;;;;;;;;4530223;28;20033;-62
2022/01/13 05:26:47;;;;;;;15.83;10.10;;;;;;;;;;4528567;28;20057;-62
2022/01/13 05:28:58;;;;;;;16.30;10.47;;;;;;;;;;4512118;28;20108;-62
2022/01/13 05:31:08;;;;;;;14.70;10.00;;;;;;;;;;4527647;28;29328;-62
2022/01/13 05:33:18;;;;;;;15.70;10.33;;;;;;;;;;4529378;28;20543;-62
2022/01/13 05:35:29;;;;;;;15.73;11.07;;;;;;;;;;4527926;28;20059;-62
2022/01/13 05:37:40;;;;;;;16.77;10.93;;;;;;;;;;4529375;28;20091;-62
2022/01/13 05:39:50;;;;;;;17.83;11.60;;;;;;;;;;4529907;28;26684;-62
2022/01/13 05:42:01;;;;;;;16.77;10.90;;;;;;;;;;4528118;28;20132;-62
2022/01/13 05:44:11;;;;;;;16.93;11.77;;;;;;;;;;4528332;28;20044;-62
2022/01/13 05:46:21;;;;;;;15.73;10.60;;;;;;;;;;4528418;28;20033;-62
2022/01/13 05:48:32;;;;;;;14.40;9.70;;;;;;;;;;4529345;28;20120;-62
2022/01/13 05:50:42;;;;;;;16.10;10.13;;;;;;;;;;4528673;28;20037;-62
2022/01/13 05:52:53;;;;;;;16.00;10.37;;;;;;;;;;4526046;28;33620;-62
2022/01/13 05:55:05;;;;;;;16.57;10.83;;;;;;;;;;4509274;28;20037;-62
2022/01/13 05:57:15;;;;;;;14.80;11.02;;;;;;;;;;4528076;28;20033;-62
2022/01/13 05:59:25;;;;;;;17.30;10.77;;;;;;;;;;4535267;28;33489;-63
2022/01/13 06:01:36;;;;;;;16.33;11.33;;;;;;;;;;4528709;28;20029;-62
2022/01/13 06:03:46;;;;;;;18.60;11.63;;;;;;;;;;4530324;28;20485;-62
2022/01/13 06:05:57;;;;;;;16.30;10.97;;;;;;;;;;4518563;28;32345;-62
2022/01/13 06:08:08;;;;;;;16.25;10.65;;;;;;;;;;4528284;28;20069;-62
2022/01/13 06:10:19;;;;;;;15.37;11.27;;;;;;;;;;4536278;28;20128;-62
2022/01/13 06:12:33;;;;;;;17.30;11.55;;;;;;;;;;4527468;28;20087;-62
2022/01/13 06:14:44;;;;;;;17.58;11.27;;;;;;;;;;4529160;28;20042;-62
2022/01/13 06:16:54;;;;;;;17.00;11.57;;;;;;;;;;4528987;28;20037;-62
2022/01/13 06:19:05;;;;;;;17.70;11.27;;;;;;;;;;4525310;28;20071;-62
2022/01/13 06:21:15;;;;;;;17.93;12.13;;;;;;;;;;4527983;28;20025;-62
2022/01/13 06:23:26;;;;;;;16.87;11.23;;;;;;;;;;4526307;28;20037;-62
2022/01/13 06:25:36;;;;;;;17.07;11.60;;;;;;;;;;4528063;28;21070;-62
2022/01/13 06:27:47;;;;;;;17.53;11.50;;;;;;;;;;4526189;28;20057;-62
2022/01/13 06:29:57;;;;;;;18.47;11.90;;;;;;;;;;4527170;28;20060;-62
2022/01/13 06:32:08;;;;;;;15.77;11.55;;;;;;;;;;4526997;28;20033;-62
2022/01/13 06:34:18;;;;;;;17.97;11.83;;;;;;;;;;4527208;28;30777;-63
2022/01/13 06:36:30;;;;;;;17.57;12.17;;;;;;;;;;4527302;28;20178;-62
2022/01/13 06:38:42;;;;;;;17.20;11.65;;;;;;;;;;4527246;28;20049;-62
2022/01/13 06:40:52;;;;;;;;;;;;;;;;;;4527790;28;20029;-62
2022/01/13 06:43:03;;;;;;;18.60;11.80;;;;;;;;;;4507991;28;20401;-62
2022/01/13 06:45:13;;;;;;;18.47;12.80;;;;;;;;;;4527615;28;20628;-62
2022/01/13 06:47:24;;;;;;;18.63;12.60;;;;;;;;;;4526259;28;20092;-62
2022/01/13 06:49:35;;;;;;;19.13;12.63;;;;;;;;;;4527298;28;20131;-62
2022/01/13 06:51:45;;;;;;;19.13;11.83;;;;;;;;;;4527866;28;20048;-63
2022/01/13 06:53:56;;;;;;;18.73;12.97;;;;;;;;;;4527250;28;20029;-60
2022/01/13 06:56:06;;;;;;;19.33;12.17;;;;;;;;;;4527005;28;20029;-61
2022/01/13 06:58:17;;;;;;;18.90;12.90;;;;;;;;;;4526031;28;20045;-60
2022/01/13 07:00:27;;;;;;;18.40;11.97;;;;;;;;;;4525616;28;20591;-60
2022/01/13 07:02:38;;;;;;;17.90;12.43;;;;;;;;;;4525425;28;20168;-61
2022/01/13 07:04:48;;;;;;;20.53;13.10;;;;;;;;;;4523135;28;20564;-61
2022/01/13 07:06:59;;;;;;;20.23;12.77;;;;;;;;;;4528515;28;20889;-60
2022/01/13 07:09:12;;;;;;;18.00;12.57;;;;;;;;;;4528487;28;20465;-60
2022/01/13 07:11:22;;;;;;;19.42;13.45;;;;;;;;;;4512057;28;20073;-60
2022/01/13 07:13:33;;;;;;;21.47;13.77;;;;;;;;;;4528852;28;20137;-61
2022/01/13 07:15:45;;;;;;;20.55;13.15;;;;;;;;;;4529531;28;20033;-60
2022/01/13 07:17:56;;;;;;;19.20;12.95;;;;;;;;;;4530489;28;20103;-60
2022/01/13 07:20:07;;;;;;;20.37;13.37;;;;;;;;;;4529826;28;20042;-60
2022/01/13 07:22:19;;;;;;;19.20;12.27;;;;;;;;;;4529909;28;20032;-60
2022/01/13 07:24:29;;;;;;;;;;;;;;;;;;4526572;28;20044;-60
2022/01/13 07:26:39;;;;;;;17.75;11.98;;;;;;;;;;4531523;28;19963;-60
2022/01/13 07:28:50;;;;;;;19.57;13.33;;;;;;;;;;4529396;28;20749;-60
2022/01/13 07:31:01;;;;;;;17.90;12.30;;;;;;;;;;4528078;28;20465;-60
2022/01/13 07:33:11;;;;;;;18.90;13.07;;;;;;;;;;4528539;28;20698;-60
2022/01/13 07:35:22;;;;;;;16.93;11.97;;;;;;;;;;4528756;28;20036;-60
2022/01/13 07:37:32;;;;;;;17.55;12.38;;;;;;;;;;4528816;28;20135;-62
2022/01/13 07:39:43;;;;;;;18.40;12.70;;;;;;;;;;4530161;28;20036;-62
2022/01/13 07:41:53;;;;;;;17.13;11.30;;;;;;;;;;4530049;28;20041;-62
2022/01/13 07:44:05;;;;;;;18.13;12.05;;;;;;;;;;4531101;28;20104;-62
2022/01/13 07:46:16;;;;;;;19.20;13.00;;;;;;;;;;4526618;28;20759;-62
2022/01/13 07:48:26;;;;;;;16.80;11.30;;;;;;;;;;4527569;28;20134;-62
2022/01/13 07:50:37;;;;;;;17.80;12.17;;;;;;;;;;4528920;28;20076;-62
2022/01/13 07:52:47;;;;;;;17.87;11.70;;;;;;;;;;4537201;28;20033;-61
2022/01/13 07:54:58;;;;;;;18.40;11.93;;;;;;;;;;4528902;28;20703;-61
2022/01/13 07:57:08;;;;;;;19.33;12.63;;;;;;;;;;4531655;28;20042;-61
2022/01/13 07:59:18;;;;;;;17.47;10.77;;;;;;;;;;4529603;28;24635;-61
2022/01/13 08:01:29;;;;;;;16.23;10.77;;;;;;;;;;4529534;28;20033;-61
2022/01/13 08:03:39;;;;;;;17.33;11.77;;;;;;;;;;4527083;28;20918;-61
2022/01/13 08:05:50;;;;;;;16.93;11.03;;;;;;;;;;4530882;28;20048;-61
2022/01/13 08:08:00;;;;;;;16.47;11.27;;;;;;;;;;4529891;28;20087;-61
2022/01/13 08:10:11;;;;;;;17.13;11.07;;;;;;;;;;4528309;28;20072;-61
2022/01/13 08:12:21;;;;;;;15.80;11.03;;;;;;;;;;4529121;28;20029;-61
2022/01/13 08:14:32;;;;;;;18.60;12.80;;;;;;;;;;4529396;28;20044;-61
2022/01/13 08:16:44;;;;;;;17.77;11.40;;;;;;;;;;4528698;28;20041;-61
2022/01/13 08:21:24;;;;;;;16.33;10.82;;;;;;;;;;4537441;28;20037;-61
2022/01/13 08:23:34;;;;;;;15.00;10.17;;;;;;;;;;4528805;28;20037;-61
2022/01/13 08:25:45;;;;;;;16.53;11.33;;;;;;;;;;4527958;28;20264;-61
2022/01/13 08:27:55;;;;;;;15.70;10.27;;;;;;;;;;4528876;28;20474;-61
2022/01/13 08:30:06;;;;;;;15.57;10.40;;;;;;;;;;4526939;28;20041;-61
2022/01/13 08:32:18;;;;;;;15.13;10.23;;;;;;;;;;4528687;28;20025;-61
2022/01/13 08:34:29;;;;;;;15.68;10.80;;;;;;;;;;4518513;28;20045;-61
2022/01/13 08:36:39;;;;;;;14.93;10.70;;;;;;;;;;4526404;28;20048;-62
2022/01/13 08:38:50;;;;;;;16.00;11.17;;;;;;;;;;4527909;28;20033;-62
2022/01/13 08:41:00;;;;;;;16.03;10.27;;;;;;;;;;4527463;28;20041;-63
2022/01/13 08:43:11;;;;;;;14.60;10.20;;;;;;;;;;4523858;28;20037;-62
2022/01/13 08:45:21;;;;;;;15.63;10.37;;;;;;;;;;4528247;28;20032;-61
2022/01/13 08:47:32;;;;;;;14.73;10.23;;;;;;;;;;4526521;28;20412;-62
2022/01/13 08:49:42;;;;;;;15.17;10.33;;;;;;;;;;4527024;28;20074;-62
2022/01/13 08:51:54;;;;;;;16.53;10.70;;;;;;;;;;4528702;28;20587;-60
2022/01/13 08:54:05;;;;;;;14.52;10.25;;;;;;;;;;4533797;28;20041;-63
2022/01/13 08:56:18;;;;;;;14.70;10.27;;;;;;;;;;4527917;28;20037;-62
2022/01/13 08:58:29;;;;;;;16.35;12.30;;;;;;;;;;4525780;28;20072;-63
2022/01/13 09:00:41;;;;;;;17.73;13.40;;;;;;;;;;4526893;28;20136;-63
2022/01/13 09:02:52;;;;;;;15.80;11.45;;;;;;;;;;4527477;28;20494;-64
2022/01/13 09:05:04;;;;;;;15.67;10.80;;;;;;;;;;4512038;28;20041;-63
2022/01/13 09:07:14;;;;;;;16.23;10.98;;;;;;;;;;4528596;28;20033;-63
2022/01/13 09:09:25;;;;;;;16.80;10.93;;;;;;;;;;4527550;28;20037;-61
2022/01/13 09:11:35;;;;;;;15.40;10.80;;;;;;;;;;4528538;28;20697;-62
2022/01/13 09:13:46;;;;;;;14.93;10.80;;;;;;;;;;4527411;28;20033;-62
2022/01/13 09:16:00;;;;;;;14.90;10.23;;;;;;;;;;4527118;28;20147;-62
2022/01/13 09:18:17;;;;;;;14.45;10.95;;;;;;;;;;4525516;28;20045;-63
2022/01/13 09:20:27;;;;;;;14.75;10.23;;;;;;;;;;4528588;28;20084;-62
2022/01/13 09:22:39;;;;;;;14.57;10.70;;;;;;;;;;4526376;28;20080;-64
2022/01/13 09:24:50;;;;;;;15.43;10.75;;;;;;;;;;4525571;28;20041;-62
2022/01/13 09:27:00;;;;;;;14.30;9.87;;;;;;;;;;4530748;28;20065;-62
2022/01/13 09:29:12;;;;;;;15.93;10.93;;;;;;;;;;4526085;28;30925;-64
2022/01/13 09:31:22;;;;;;;15.18;10.90;;;;;;;;;;4527179;28;20034;-61
2022/01/13 09:33:33;;;;;;;15.03;10.10;;;;;;;;;;4528067;28;20033;-63
2022/01/13 09:35:44;;;;;;;15.02;10.23;;;;;;;;;;4526125;28;20044;-63
2022/01/13 09:37:54;;;;;;;14.47;9.90;;;;;;;;;;4526583;28;20042;-63
2022/01/13 09:40:07;;;;;;;12.70;9.40;;;;;;;;;;4529259;28;20045;-62
2022/01/13 09:42:18;;;;;;;14.05;9.98;;;;;;;;;;4528705;28;20037;-61
2022/01/13 09:44:29;;;;;;;12.93;9.05;;;;;;;;;;4512272;28;20041;-61
2022/01/13 09:46:40;;;;;;;13.67;9.90;;;;;;;;;;4527719;28;20509;-61
2022/01/13 09:48:51;;;;;;;;;;;;;;;;;;4523230;28;20045;-62
2022/01/13 09:51:01;;;;;;;14.35;9.82;;;;;;;;;;4527186;28;19920;-61
2022/01/13 09:53:13;;;;;;;13.77;9.83;;;;;;;;;;4526563;28;20044;-61
2022/01/13 09:55:24;;;;;;;14.40;10.23;;;;;;;;;;4528696;28;20122;-61
2022/01/13 09:57:35;;;;;;;17.65;13.45;;;;;;;;;;4527457;28;20049;-61
2022/01/13 09:59:45;;;;;;;18.37;13.70;;;;;;;;;;4527667;28;20038;-61
2022/01/13 10:01:55;;;;;;;12.20;10.10;;;;;;;;;;4517724;28;20026;-61
2022/01/13 10:04:06;;;;;;;12.83;9.57;;;;;;;;;;4525355;28;29935;-61
2022/01/13 10:06:19;;;;;;;13.40;9.83;;;;;;;;;;4525313;28;20041;-61
2022/01/13 10:08:44;;;;;;;14.40;10.85;;;;;;;;;;4526842;28;20553;-61
2022/01/13 10:10:55;;;;;;;14.55;10.65;;;;;;;;;;4526225;28;20788;-61
2022/01/13 10:13:14;;;;;;;13.77;10.00;;;;;;;;;;4526029;28;20029;-65
2022/01/13 10:17:54;;;;;;;13.32;9.93;;;;;;;;;;4527144;28;20049;-61
2022/01/13 10:20:11;;;;;;;14.53;10.23;;;;;;;;;;4527323;28;20029;-62
2022/01/13 10:22:30;;;;;;;14.18;10.00;;;;;;;;;;4527334;28;20167;-62
2022/01/13 10:24:43;;;;;;;12.43;8.90;;;;;;;;;;4525099;28;20692;-62
2022/01/13 10:27:03;;;;;;;12.80;9.57;;;;;;;;;;4525242;28;20348;-62
2022/01/13 10:29:14;;;;;;;13.20;9.68;;;;;;;;;;4516264;28;20026;-62
2022/01/13 10:31:44;;;;;;;13.73;9.53;;;;;;;;;;4526360;28;20029;-62
2022/01/13 10:33:57;;;;;;;12.75;9.45;;;;;;;;;;4525867;28;20077;-62
2022/01/13 10:36:10;;;;;;;12.63;8.93;;;;;;;;;;4527416;28;21133;-62
2022/01/13 10:38:21;;;;;;;13.43;9.27;;;;;;;;;;4515962;28;20045;-62
2022/01/13 10:40:38;;;;;;;;;;;;;;;;;;4524778;28;20033;-62
2022/01/13 10:43:16;;;;;;;13.27;9.25;;;;;;;;;;4528644;28;20001;-62
2022/01/13 10:45:31;;;;;;;13.35;9.52;;;;;;;;;;4526094;28;20124;-62
2022/01/13 10:47:55;;;;;;;13.32;9.57;;;;;;;;;;4528451;28;20068;-62
2022/01/13 10:50:10;;;;;;;12.27;9.43;;;;;;;;;;4526671;28;20097;-62
2022/01/13 10:52:26;;;;;;;12.10;8.75;;;;;;;;;;4535191;28;21061;-62
2022/01/13 10:54:37;;;;;;;12.40;9.02;;;;;;;;;;4531961;28;20029;-62
2022/01/13 10:56:47;;;;;;;12.03;8.77;;;;;;;;;;4524739;28;20511;-62
2022/01/13 10:58:59;;;;;;;12.93;9.13;;;;;;;;;;4524408;28;24462;-62
2022/01/13 11:01:11;;;;;;;13.10;9.10;;;;;;;;;;4524368;28;20564;-62
2022/01/13 11:03:24;;;;;;;12.68;9.27;;;;;;;;;;4526102;28;20034;-62
2022/01/13 11:05:42;;;;;;;13.63;8.77;;;;;;;;;;4526278;28;20044;-62
2022/01/13 11:07:52;;;;;;;11.60;8.40;;;;;;;;;;4534637;28;20033;-63
2022/01/13 11:10:06;;;;;;;13.33;9.10;;;;;;;;;;4527617;28;20029;-62
2022/01/13 11:12:16;;;;;;;12.68;8.90;;;;;;;;;;4525602;28;20074;-62
2022/01/13 11:14:27;;;;;;;11.67;8.83;;;;;;;;;;4525929;28;20567;-62
2022/01/13 11:16:38;;;;;;;13.20;8.50;;;;;;;;;;4526869;28;20043;-62
2022/01/13 11:18:49;;;;;;;13.65;8.85;;;;;;;;;;4526151;28;20120;-62
2022/01/13 11:21:01;;;;;;;11.60;8.15;;;;;;;;;;4525764;28;20038;-62
2022/01/13 11:23:12;;;;;;;11.80;8.05;;;;;;;;;;4523019;28;20037;-62
2022/01/13 11:25:26;;;;;;;10.90;7.65;;;;;;;;;;4524912;28;20041;-62
2022/01/13 11:27:37;;;;;;;13.15;9.07;;;;;;;;;;4524044;28;20614;-62
2022/01/13 11:29:48;;;;;;;12.70;8.97;;;;;;;;;;4528204;28;20116;-62
2022/01/13 11:31:59;;;;;;;11.38;8.25;;;;;;;;;;4525409;28;20033;-62
2022/01/13 11:34:09;;;;;;;11.40;8.00;;;;;;;;;;4525473;28;20474;-62
2022/01/13 11:36:20;;;;;;;13.17;9.63;;;;;;;;;;4528120;28;20040;-62
2022/01/13 11:38:31;;;;;;;15.52;11.10;;;;;;;;;;4517549;28;20100;-61
2022/01/13 11:40:43;;;;;;;13.03;9.27;;;;;;;;;;4525142;28;20153;-62
2022/01/13 11:42:55;;;;;;;15.93;11.57;;;;;;;;;;4526244;28;20037;-62
2022/01/13 11:45:13;;;;;;;;;;;;;;;;;;4526010;28;20037;-62
2022/01/13 11:47:26;;;;;;;16.40;12.45;;;;;;;;;;4526187;28;20395;-62
2022/01/13 11:49:43;;;;;;;16.20;11.52;;;;;;;;;;4524132;28;20029;-63
2022/01/13 11:52:01;;;;;;;15.52;11.68;;;;;;;;;;4525348;28;20037;-62
2022/01/13 11:54:30;;;;;;;15.07;11.20;;;;;;;;;;4526854;28;20640;-62
2022/01/13 11:57:19;;;;;;;16.10;12.00;;;;;;;;;;4529100;28;20040;-62
2022/01/13 11:59:30;;;;;;;16.45;11.52;;;;;;;;;;4527589;28;20044;-62
2022/01/13 12:01:40;;;;;;;16.10;12.07;;;;;;;;;;4511616;28;28124;-62
2022/01/13 12:03:52;;;;;;;15.10;11.27;;;;;;;;;;4528755;28;20493;-62
2022/01/13 12:06:03;;;;;;;16.55;11.75;;;;;;;;;;4512408;28;20068;-62
2022/01/13 12:08:56;;;;;;;14.73;11.00;;;;;;;;;;4525989;28;21103;-63
2022/01/13 12:11:07;;;;;;;14.57;10.68;;;;;;;;;;4527931;28;20052;-62
2022/01/13 12:13:32;;;;;;;13.88;10.25;;;;;;;;;;4526624;28;20034;-62
2022/01/13 12:15:46;;;;;;;15.63;11.38;;;;;;;;;;4528011;28;20728;-62
2022/01/13 12:18:03;;;;;;;16.30;11.60;;;;;;;;;;4527812;28;20160;-63
2022/01/13 12:20:27;;;;;;;14.25;10.40;;;;;;;;;;4528388;28;20037;-62
2022/01/13 12:22:45;;;;;;;14.35;10.35;;;;;;;;;;4537109;28;20036;-62
2022/01/13 12:25:01;;;;;;;13.55;10.13;;;;;;;;;;4515648;28;20804;-62
2022/01/13 12:27:11;;;;;;;13.95;10.00;;;;;;;;;;4526843;28;20215;-62
2022/01/13 12:29:28;;;;;;;14.77;10.23;;;;;;;;;;4529006;28;20524;-62
2022/01/13 12:31:50;;;;;;;14.63;9.73;;;;;;;;;;4531036;28;20828;-62
2022/01/13 12:34:00;;;;;;;13.02;9.75;;;;;;;;;;4527162;28;20041;-62
2022/01/13 12:36:22;;;;;;;12.17;7.67;;;;;;;;;;4528770;28;20040;-63
2022/01/13 12:38:35;;;;;;;13.80;9.63;;;;;;;;;;4527837;28;20057;-63
2022/01/13 12:41:16;;;;;;;11.88;8.50;;;;;;;;;;4528352;28;20095;-62
2022/01/13 12:45:44;;;;;;;11.90;8.85;;;;;;;;;;4526269;28;20037;-62
2022/01/13 12:48:09;;;;;;;12.15;8.23;;;;;;;;;;4526964;28;20026;-62
2022/01/13 12:50:25;;;;;;;12.00;8.52;;;;;;;;;;4529096;28;20043;-62
2022/01/13 12:52:35;;;;;;;14.15;10.25;;;;;;;;;;4527960;28;20061;-62
2022/01/13 12:54:47;;;;;;;11.97;8.67;;;;;;;;;;4528607;28;20120;-63
2022/01/13 12:57:04;;;;;;;13.00;9.55;;;;;;;;;;4526844;28;20034;-62
2022/01/13 12:59:15;;;;;;;12.15;9.27;;;;;;;;;;4526329;28;20045;-62
2022/01/13 13:01:31;;;;;;;12.97;8.67;;;;;;;;;;4527740;28;20029;-62
2022/01/13 13:03:42;;;;;;;11.00;7.40;;;;;;;;;;4528972;28;20064;-62
2022/01/13 13:05:53;;;;;;;10.43;7.63;;;;;;;;;;4525609;28;20120;-62
2022/01/13 13:08:05;;;;;;;11.77;8.35;;;;;;;;;;4528991;28;20874;-63
2022/01/13 13:10:18;;;;;;;11.95;8.15;;;;;;;;;;4526510;28;20636;-62
2022/01/13 13:12:31;;;;;;;14.90;9.23;;;;;;;;;;4528020;28;20031;-62
2022/01/13 13:17:11;;;;;;;11.55;8.30;;;;;;;;;;4526808;28;20563;-62
2022/01/13 13:19:22;;;;;;;12.90;8.70;;;;;;;;;;4527002;28;20088;-62
2022/01/13 13:21:32;;;;;;;13.07;8.60;;;;;;;;;;4528247;28;20276;-62
2022/01/13 13:23:44;;;;;;;13.13;8.80;;;;;;;;;;4542850;28;20112;-62
2022/01/13 13:25:56;;;;;;;11.75;8.52;;;;;;;;;;4530075;28;20040;-62
2022/01/13 13:28:26;;;;;;;13.20;8.60;;;;;;;;;;4529371;28;20120;-62